If you wish to contribute or participate in the discussions about articles you are invited to join SKYbrary as a registered user

 Actions

Mataveri Airport

From SKYbrary Wiki

SCIP
Airport
ICAO: SCIP – IATA: IPC
Summary
Name Mataveri Airport
Region South America and Caribbean
Territory Chile CL.gif
Location Hanga Roa, Valparaiso
Serving Easter Island
Elevation 69.19 m
227 ft
227 ft69.19 m
Type medium airport
Coordinates 27° 9' 53.25" S, 109° 25' 18.59" W
Runways
Designator Length Width Surface ROPS
10/28 3300 m10,826.772 ft
45 m147.638 ft
ASP yes/yes


METAR
Observation SCIP 142300Z 09014KT 9999 SCT025 19/12 Q1027 NOSIG
Station Isla De Pascua
Date/Time 14 September 2019 23:00:00
Wind direction 90°
Wind speed 14 kts
Lowest cloud amount scattered clouds
Temperature 19°C
Dew point 12°C
Humidity 63%
QNH 1027 hPa
Weather condition n/a

International airport serving Easter Island.

Climatology

Tropical rainforest climate (Köppen climate classification Af)

Maps

Terrain

Loading map...

Airport Layout

Loading map...


Accidents & Serious Incidents at or in vicinity of SCIP

None on SKYbrary